Time;durP1;ratioP1;P1;durP2;ratioP2;P2;SDS_P1;SDS_P2;PMS_P1;PMS_P2;Temp;Humidity;BMP_temperature;BMP_pressure;BME280_temperature;BME280_humidity;BME280_pressure;Samples;Min_cycle;Max_cycle;Signal;HPM_P1;HPM_P2
2022/04/01 00:00:57;;;;;;;9.93;5.50;;;;;;;;;;8298288;28;20099;-84
2022/04/01 00:05:00;;;;;;;7.82;4.78;;;;;;;;;;8311970;28;20125;-85
2022/04/01 00:09:03;;;;;;;7.78;4.63;;;;;;;;;;8282987;28;20049;-84
2022/04/01 00:13:07;;;;;;;8.20;4.88;;;;;;;;;;8280809;28;20050;-84
2022/04/01 00:17:10;;;;;;;8.88;5.30;;;;;;;;;;8275832;28;20068;-85
2022/04/01 00:21:13;;;;;;;9.35;5.53;;;;;;;;;;8273270;28;20129;-84
2022/04/01 00:25:16;;;;;;;7.38;4.95;;;;;;;;;;8276268;28;20078;-84
2022/04/01 00:29:20;;;;;;;9.30;5.78;;;;;;;;;;8283978;28;20042;-83
2022/04/01 00:33:23;;;;;;;13.25;7.07;;;;;;;;;;8286440;28;20046;-85
2022/04/01 00:37:26;;;;;;;11.55;6.68;;;;;;;;;;8283732;28;20064;-84
2022/04/01 00:41:29;;;;;;;7.53;4.72;;;;;;;;;;8296677;28;20042;-82
2022/04/01 00:45:33;;;;;;;10.35;6.35;;;;;;;;;;8296197;28;20042;-86
2022/04/01 00:49:37;;;;;;;7.53;4.88;;;;;;;;;;8265256;28;20065;-84
2022/04/01 00:53:41;;;;;;;8.55;5.00;;;;;;;;;;8290423;28;20053;-84
2022/04/01 00:57:43;;;;;;;7.78;4.63;;;;;;;;;;8263663;28;20054;-84
2022/04/01 01:01:49;;;;;;;9.15;4.20;;;;;;;;;;8263173;28;20125;-83
2022/04/01 01:05:52;;;;;;;8.25;5.28;;;;;;;;;;8262910;28;20053;-83
2022/04/01 01:09:54;;;;;;;6.13;3.58;;;;;;;;;;8263964;28;20426;-84
2022/04/01 01:13:57;;;;;;;7.38;4.38;;;;;;;;;;8264323;28;20116;-85
2022/04/01 01:18:01;;;;;;;9.13;4.85;;;;;;;;;;8266816;28;20053;-84
2022/04/01 01:22:04;;;;;;;5.07;3.60;;;;;;;;;;8271027;28;20042;-85
2022/04/01 01:26:08;;;;;;;10.13;5.15;;;;;;;;;;8270204;28;20061;-84
2022/04/01 01:30:12;;;;;;;8.90;5.22;;;;;;;;;;8270745;28;20494;-84
2022/04/01 01:34:15;;;;;;;9.75;5.57;;;;;;;;;;8270113;28;20097;-85
2022/04/01 01:38:19;;;;;;;9.43;5.68;;;;;;;;;;8270038;28;20501;-84
2022/04/01 01:42:23;;;;;;;9.43;5.70;;;;;;;;;;8270397;28;20054;-84
2022/04/01 01:46:26;;;;;;;13.48;7.25;;;;;;;;;;8269849;28;20050;-83
2022/04/01 01:54:52;;;;;;;12.68;7.30;;;;;;;;;;8270054;28;20093;-83
2022/04/01 01:58:56;;;;;;;11.93;6.90;;;;;;;;;;8269461;28;20137;-85
2022/04/01 02:02:59;;;;;;;11.10;6.47;;;;;;;;;;8269299;28;20052;-84
2022/04/01 02:07:01;;;;;;;12.23;5.82;;;;;;;;;;8269662;28;20555;-87
2022/04/01 02:11:05;;;;;;;12.65;7.35;;;;;;;;;;8269180;28;20504;-85
2022/04/01 02:15:10;;;;;;;12.57;7.35;;;;;;;;;;8269051;28;20602;-84
2022/04/01 02:19:16;;;;;;;10.90;6.60;;;;;;;;;;8269230;28;20498;-84
2022/04/01 02:23:18;;;;;;;10.00;6.18;;;;;;;;;;8268646;28;20046;-84
2022/04/01 02:27:21;;;;;;;10.43;6.70;;;;;;;;;;8268434;28;20081;-84
2022/04/01 02:31:25;;;;;;;9.38;5.63;;;;;;;;;;8267481;28;20057;-85
2022/04/01 02:35:28;;;;;;;9.15;5.50;;;;;;;;;;8268431;28;20047;-83
2022/04/01 02:39:30;;;;;;;8.90;5.25;;;;;;;;;;8268140;28;20050;-84
2022/04/01 02:43:33;;;;;;;8.80;5.05;;;;;;;;;;8268469;28;20046;-85
2022/04/01 02:47:37;;;;;;;7.05;4.00;;;;;;;;;;8268295;28;20505;-83
2022/04/01 02:51:42;;;;;;;10.13;5.88;;;;;;;;;;8267818;28;20046;-82
2022/04/01 02:55:46;;;;;;;7.50;4.25;;;;;;;;;;8324591;28;20072;-84
2022/04/01 02:59:48;;;;;;;8.48;4.80;;;;;;;;;;8332712;28;20052;-84
2022/04/01 03:03:52;;;;;;;6.72;4.22;;;;;;;;;;8319674;28;20045;-83
2022/04/01 03:07:55;;;;;;;6.30;3.92;;;;;;;;;;8299788;28;20081;-83
2022/04/01 03:11:58;;;;;;;6.15;3.88;;;;;;;;;;8300045;28;20405;-84
2022/04/01 03:16:01;;;;;;;6.53;4.15;;;;;;;;;;8299396;28;20061;-83
2022/04/01 03:20:13;;;;;;;8.27;4.38;;;;;;;;;;8299307;28;20128;-84
2022/04/01 03:24:16;;;;;;;6.40;3.95;;;;;;;;;;8299142;28;20069;-84
2022/04/01 03:28:19;;;;;;;8.27;4.25;;;;;;;;;;8299059;28;20061;-83
2022/04/01 03:32:22;;;;;;;5.97;4.07;;;;;;;;;;8299091;28;20053;-84
2022/04/01 03:36:26;;;;;;;7.13;4.40;;;;;;;;;;8299065;28;20489;-83
2022/04/01 03:40:29;;;;;;;6.03;3.92;;;;;;;;;;8299054;28;20501;-85
2022/04/01 03:44:32;;;;;;;10.65;5.13;;;;;;;;;;8299214;28;20054;-84
2022/04/01 03:48:39;;;;;;;6.93;4.55;;;;;;;;;;8299027;28;20485;-84
2022/04/01 03:52:47;;;;;;;7.60;3.80;;;;;;;;;;8298611;28;20099;-85
2022/04/01 03:56:57;;;;;;;7.53;4.35;;;;;;;;;;8298545;28;20049;-84
2022/04/01 04:01:01;;;;;;;5.88;3.45;;;;;;;;;;8298990;28;20481;-85
2022/04/01 04:05:07;;;;;;;6.53;4.20;;;;;;;;;;8298274;28;20049;-84
2022/04/01 04:09:13;;;;;;;6.38;3.85;;;;;;;;;;8298184;28;20129;-83
2022/04/01 04:13:16;;;;;;;7.95;4.03;;;;;;;;;;8298180;28;20053;-85
2022/04/01 04:17:26;;;;;;;7.15;3.90;;;;;;;;;;8297981;28;20397;-84
2022/04/01 04:21:30;;;;;;;7.28;4.32;;;;;;;;;;8297958;28;20050;-84
2022/04/01 04:25:36;;;;;;;6.10;3.72;;;;;;;;;;8297813;28;20058;-85
2022/04/01 04:29:47;;;;;;;7.50;4.07;;;;;;;;;;8298274;28;20046;-85
2022/04/01 04:33:51;;;;;;;6.78;4.18;;;;;;;;;;8297854;28;20049;-85
2022/04/01 04:37:57;;;;;;;6.28;3.88;;;;;;;;;;8297683;28;20049;-84
2022/04/01 04:42:03;;;;;;;7.53;4.22;;;;;;;;;;8298163;28;20049;-84
2022/04/01 04:46:06;;;;;;;9.15;5.05;;;;;;;;;;8297709;28;20046;-83
2022/04/01 04:50:10;;;;;;;7.40;3.97;;;;;;;;;;8297574;28;20042;-84
2022/04/01 04:54:15;;;;;;;6.10;3.72;;;;;;;;;;8301790;28;20056;-82
2022/04/01 04:58:22;;;;;;;9.75;5.05;;;;;;;;;;8303655;28;20141;-85
2022/04/01 05:02:43;;;;;;;6.57;3.63;;;;;;;;;;8305190;28;20454;-85
2022/04/01 05:06:51;;;;;;;6.53;3.22;;;;;;;;;;8309126;28;20042;-84
2022/04/01 05:11:03;;;;;;;5.28;3.42;;;;;;;;;;8282639;28;20046;-87
2022/04/01 05:15:09;;;;;;;6.90;4.15;;;;;;;;;;8270934;28;20054;-83
2022/04/01 05:19:14;;;;;;;7.22;4.53;;;;;;;;;;8270728;28;20050;-84
2022/04/01 05:23:21;;;;;;;6.85;3.83;;;;;;;;;;8270647;28;20066;-84
2022/04/01 05:27:28;;;;;;;8.35;4.78;;;;;;;;;;8270941;28;20041;-85
2022/04/01 05:31:37;;;;;;;7.40;4.30;;;;;;;;;;8288360;28;20042;-85
2022/04/01 05:35:43;;;;;;;7.57;4.18;;;;;;;;;;8301826;28;20474;-84
2022/04/01 05:39:48;;;;;;;11.70;5.93;;;;;;;;;;8292712;28;20085;-81
2022/04/01 05:43:52;;;;;;;7.32;4.75;;;;;;;;;;8294004;28;20054;-85
2022/04/01 05:47:58;;;;;;;11.73;6.40;;;;;;;;;;8302125;28;20046;-82
2022/04/01 05:52:03;;;;;;;6.40;3.80;;;;;;;;;;8301694;28;20050;-84
2022/04/01 05:56:11;;;;;;;7.93;4.30;;;;;;;;;;8302265;28;20050;-83
2022/04/01 06:00:14;;;;;;;6.75;3.60;;;;;;;;;;8301397;28;20045;-84
2022/04/01 06:04:53;;;;;;;15.13;6.53;;;;;;;;;;8301725;28;20050;-84
2022/04/01 06:09:03;;;;;;;5.82;3.72;;;;;;;;;;8301865;28;20100;-86
2022/04/01 06:13:16;;;;;;;7.05;3.80;;;;;;;;;;8286201;28;20045;-82
2022/04/01 06:17:29;;;;;;;6.30;3.47;;;;;;;;;;8282681;28;20401;-84
2022/04/01 06:21:38;;;;;;;6.40;3.90;;;;;;;;;;8288281;28;20046;-84
2022/04/01 06:25:47;;;;;;;5.28;3.60;;;;;;;;;;8268745;28;20445;-82
2022/04/01 06:30:03;;;;;;;7.75;4.22;;;;;;;;;;8268712;28;20050;-85
2022/04/01 06:34:16;;;;;;;22.17;8.05;;;;;;;;;;8268961;28;20838;-84
2022/04/01 06:38:30;;;;;;;9.85;4.05;;;;;;;;;;8268321;28;20052;-85
2022/04/01 06:42:34;;;;;;;7.20;4.22;;;;;;;;;;8268718;28;20054;-83
2022/04/01 06:46:37;;;;;;;12.27;5.07;;;;;;;;;;8268552;28;20511;-83
2022/04/01 06:50:41;;;;;;;5.55;3.67;;;;;;;;;;8268068;28;20057;-84
2022/04/01 06:54:46;;;;;;;9.55;5.00;;;;;;;;;;8308161;28;20080;-83
2022/04/01 06:58:49;;;;;;;7.38;4.13;;;;;;;;;;8333239;28;20053;-83
2022/04/01 07:02:51;;;;;;;12.82;6.00;;;;;;;;;;8323372;28;20520;-85
2022/04/01 07:06:55;;;;;;;8.32;4.43;;;;;;;;;;8274458;28;20504;-84
2022/04/01 07:11:01;;;;;;;9.00;5.32;;;;;;;;;;8279638;28;20150;-85
2022/04/01 07:15:04;;;;;;;6.95;4.35;;;;;;;;;;8276925;28;20103;-84
2022/04/01 07:19:07;;;;;;;19.15;6.20;;;;;;;;;;8298514;28;20052;-83
2022/04/01 07:23:09;;;;;;;10.52;5.20;;;;;;;;;;8298497;28;20053;-84
2022/04/01 07:27:14;;;;;;;7.13;4.40;;;;;;;;;;8257211;28;20054;-82
2022/04/01 07:35:36;;;;;;;8.13;3.97;;;;;;;;;;8260104;28;20065;-84
2022/04/01 07:39:46;;;;;;;7.68;4.55;;;;;;;;;;8255785;28;20475;-83
2022/04/01 07:43:52;;;;;;;9.82;4.47;;;;;;;;;;8261083;28;20042;-84
2022/04/01 07:47:57;;;;;;;6.10;3.72;;;;;;;;;;8240403;28;20118;-84
2022/04/01 07:52:09;;;;;;;7.47;4.28;;;;;;;;;;8254966;28;20042;-83
2022/04/01 07:56:30;;;;;;;6.90;4.07;;;;;;;;;;8265956;28;20046;-84
2022/04/01 08:00:57;;;;;;;9.25;5.03;;;;;;;;;;8242609;28;20054;-83
2022/04/01 08:05:13;;;;;;;5.10;3.95;;;;;;;;;;8232848;28;20125;-84
2022/04/01 08:09:27;;;;;;;10.80;5.20;;;;;;;;;;8232733;28;20043;-82
2022/04/01 08:13:37;;;;;;;10.50;4.40;;;;;;;;;;8242116;28;20042;-83
2022/04/01 08:17:43;;;;;;;8.55;5.78;;;;;;;;;;8233143;28;20070;-85
2022/04/01 08:21:57;;;;;;;5.80;3.83;;;;;;;;;;8233318;28;20113;-83
2022/04/01 08:26:02;;;;;;;8.00;4.53;;;;;;;;;;8253960;28;20101;-82
2022/04/01 08:30:13;;;;;;;13.68;5.80;;;;;;;;;;8271437;28;20050;-84
2022/04/01 08:34:28;;;;;;;8.50;5.43;;;;;;;;;;8282894;28;20070;-82
2022/04/01 08:38:41;;;;;;;6.40;4.65;;;;;;;;;;8271587;28;20137;-83
2022/04/01 08:42:52;;;;;;;7.07;4.28;;;;;;;;;;8277903;28;20070;-84
2022/04/01 08:47:04;;;;;;;8.95;4.70;;;;;;;;;;8312070;28;20073;-83
2022/04/01 08:51:13;;;;;;;9.27;5.13;;;;;;;;;;8336061;28;20141;-84
2022/04/01 08:55:27;;;;;;;9.73;5.32;;;;;;;;;;8336415;28;20045;-84
2022/04/01 08:59:46;;;;;;;7.57;5.03;;;;;;;;;;8336058;28;20046;-83
2022/04/01 09:04:22;;;;;;;10.00;6.45;;;;;;;;;;8270891;28;20050;-84
2022/04/01 09:08:37;;;;;;;7.05;4.40;;;;;;;;;;8273227;28;20125;-84
2022/04/01 09:12:56;;;;;;;9.18;5.90;;;;;;;;;;8322195;28;20049;-83
2022/04/01 09:17:14;;;;;;;8.75;5.38;;;;;;;;;;8335886;28;20041;-85
2022/04/01 09:21:41;;;;;;;7.85;4.70;;;;;;;;;;8291636;28;20042;-84
2022/04/01 09:25:56;;;;;;;8.10;4.80;;;;;;;;;;8273639;28;20047;-82
2022/04/01 09:30:04;;;;;;;8.05;4.45;;;;;;;;;;8292760;28;20129;-83
2022/04/01 09:34:14;;;;;;;7.75;5.47;;;;;;;;;;8302565;28;20421;-83
2022/04/01 09:38:19;;;;;;;7.57;4.72;;;;;;;;;;8267457;28;20405;-83
2022/04/01 09:42:23;;;;;;;10.35;4.90;;;;;;;;;;8280466;28;20054;-81
2022/04/01 09:46:28;;;;;;;9.63;5.70;;;;;;;;;;8275932;28;20425;-84
2022/04/01 09:50:34;;;;;;;7.85;4.45;;;;;;;;;;8295486;28;20038;-83
2022/04/01 09:54:46;;;;;;;8.23;4.95;;;;;;;;;;8290281;28;20038;-84
2022/04/01 09:58:53;;;;;;;9.90;6.47;;;;;;;;;;8292725;28;20478;-83
2022/04/01 10:02:59;;;;;;;15.02;7.90;;;;;;;;;;8296060;28;20045;-82
2022/04/01 10:07:05;;;;;;;8.57;5.00;;;;;;;;;;8272061;28;20062;-83
2022/04/01 10:11:08;;;;;;;16.73;8.20;;;;;;;;;;8287497;28;20046;-81
2022/04/01 10:15:13;;;;;;;8.52;5.10;;;;;;;;;;8288838;28;20041;-83
2022/04/01 10:19:24;;;;;;;9.45;5.13;;;;;;;;;;8289383;28;20478;-82
2022/04/01 10:23:28;;;;;;;11.77;7.13;;;;;;;;;;8293010;28;20070;-82
2022/04/01 10:27:39;;;;;;;8.90;6.05;;;;;;;;;;8293479;28;20058;-84
2022/04/01 10:31:54;;;;;;;8.57;5.07;;;;;;;;;;8279010;28;20050;-85
2022/04/01 10:35:58;;;;;;;8.88;5.15;;;;;;;;;;8275209;28;20521;-84
2022/04/01 10:40:08;;;;;;;8.93;5.20;;;;;;;;;;8296933;28;20132;-82
2022/04/01 10:44:13;;;;;;;8.65;5.20;;;;;;;;;;8337178;28;20132;-82
2022/04/01 10:52:43;;;;;;;9.27;5.43;;;;;;;;;;8315027;28;20041;-82
2022/04/01 10:57:00;;;;;;;10.05;5.45;;;;;;;;;;8333413;28;20052;-84
2022/04/01 11:01:03;;;;;;;8.13;4.70;;;;;;;;;;8333631;28;20045;-83
2022/04/01 11:05:30;;;;;;;12.18;6.82;;;;;;;;;;8307862;28;20056;-85
2022/04/01 11:09:45;;;;;;;8.02;4.63;;;;;;;;;;8280092;28;20133;-83
2022/04/01 11:14:06;;;;;;;8.35;5.28;;;;;;;;;;8273542;28;20426;-83
2022/04/01 11:18:11;;;;;;;7.82;4.40;;;;;;;;;;8276186;28;20061;-85
2022/04/01 11:22:37;;;;;;;13.82;6.72;;;;;;;;;;8275575;28;20542;-84
2022/04/01 11:26:42;;;;;;;7.57;4.03;;;;;;;;;;8277399;28;20113;-85
2022/04/01 11:31:10;;;;;;;7.78;4.57;;;;;;;;;;8285408;28;20038;-86
2022/04/01 11:35:16;;;;;;;6.45;4.40;;;;;;;;;;8285370;28;20046;-85
2022/04/01 11:39:24;;;;;;;5.75;3.47;;;;;;;;;;8274726;28;20052;-85
2022/04/01 11:43:33;;;;;;;7.25;4.38;;;;;;;;;;8267180;28;20135;-83
2022/04/01 11:47:40;;;;;;;8.48;4.25;;;;;;;;;;8265564;28;20042;-85
2022/04/01 11:51:46;;;;;;;7.07;4.32;;;;;;;;;;8266929;28;20482;-85
2022/04/01 11:55:54;;;;;;;6.22;3.92;;;;;;;;;;8285208;28;20053;-85
2022/04/01 12:00:02;;;;;;;7.20;4.10;;;;;;;;;;8292646;28;20414;-85
2022/04/01 12:04:08;;;;;;;5.53;3.78;;;;;;;;;;8288560;28;20675;-86
2022/04/01 12:12:55;;;;;;;7.78;4.78;;;;;;;;;;8216680;28;20061;-85
2022/04/01 12:17:16;;;;;;;6.18;3.97;;;;;;;;;;8323147;28;20050;-85
2022/04/01 12:21:32;;;;;;;7.57;4.70;;;;;;;;;;8298254;28;20049;-86
2022/04/01 12:25:50;;;;;;;9.20;5.60;;;;;;;;;;8297738;28;20058;-85
2022/04/01 12:30:15;;;;;;;8.20;4.88;;;;;;;;;;8270928;28;20131;-86
2022/04/01 12:34:34;;;;;;;7.35;4.53;;;;;;;;;;8272908;28;20050;-86
2022/04/01 12:39:06;;;;;;;8.30;5.10;;;;;;;;;;8279253;28;20129;-86
2022/04/01 12:43:47;;;;;;;8.15;4.78;;;;;;;;;;8298662;28;20049;-87
2022/04/01 12:48:36;;;;;;;7.50;5.38;;;;;;;;;;8296001;28;20041;-85
2022/04/01 12:53:16;;;;;;;7.25;4.75;;;;;;;;;;8278558;28;20500;-85
2022/04/01 12:58:22;;;;;;;9.95;5.25;;;;;;;;;;8298105;28;20061;-85
2022/04/01 13:02:54;;;;;;;7.68;5.03;;;;;;;;;;8329964;28;20103;-85
2022/04/01 13:07:15;;;;;;;8.43;4.78;;;;;;;;;;8312513;28;20417;-86
2022/04/01 13:11:40;;;;;;;7.47;4.80;;;;;;;;;;8270584;28;20383;-86
2022/04/01 13:16:29;;;;;;;8.85;5.28;;;;;;;;;;8269094;28;20038;-86
2022/04/01 13:20:50;;;;;;;8.18;4.93;;;;;;;;;;8281500;28;20042;-87
2022/04/01 13:25:16;;;;;;;7.43;4.28;;;;;;;;;;8269946;28;20098;-84
2022/04/01 13:29:44;;;;;;;14.18;6.65;;;;;;;;;;8252498;28;20062;-85
2022/04/01 13:34:30;;;;;;;8.10;5.55;;;;;;;;;;8269954;28;20057;-88
2022/04/01 13:38:56;;;;;;;14.18;7.55;;;;;;;;;;8278545;28;20050;-86
2022/04/01 13:43:21;;;;;;;9.63;5.50;;;;;;;;;;8269924;28;20506;-88
2022/04/01 13:47:46;;;;;;;8.50;5.68;;;;;;;;;;8269510;28;20200;-86
2022/04/01 13:52:18;;;;;;;13.48;8.80;;;;;;;;;;8280150;28;20052;-84
2022/04/01 13:56:42;;;;;;;12.07;7.15;;;;;;;;;;8292623;28;20142;-86
2022/04/01 14:01:11;;;;;;;10.13;5.83;;;;;;;;;;8291100;28;20117;-86
2022/04/01 14:05:24;;;;;;;11.23;6.32;;;;;;;;;;8269167;28;20050;-86
2022/04/01 14:09:50;;;;;;;10.93;6.22;;;;;;;;;;8269731;28;20045;-86
2022/04/01 14:14:34;;;;;;;10.48;6.55;;;;;;;;;;8272955;28;20140;-88
2022/04/01 14:19:13;;;;;;;10.80;7.03;;;;;;;;;;8273231;28;20487;-87
2022/04/01 14:23:53;;;;;;;16.25;8.75;;;;;;;;;;8269941;28;20046;-87
2022/04/01 14:30:16;;;;;;;10.70;6.38;;;;;;;;;;8218017;28;20042;-86
2022/04/01 14:34:29;;;;;;;10.07;6.30;;;;;;;;;;8217362;28;20495;-88
2022/04/01 14:43:38;;;;;;;8.85;5.55;;;;;;;;;;8205172;28;20066;-87
2022/04/01 14:48:06;;;;;;;10.85;6.53;;;;;;;;;;8235767;28;20053;-87
2022/04/01 14:52:29;;;;;;;9.77;5.95;;;;;;;;;;8214132;28;20043;-87
2022/04/01 14:57:13;;;;;;;11.30;5.95;;;;;;;;;;8217691;28;20481;-87
2022/04/01 15:02:05;;;;;;;7.53;4.60;;;;;;;;;;8232601;28;20058;-86
2022/04/01 15:06:46;;;;;;;9.18;5.97;;;;;;;;;;8209943;28;20054;-86
2022/04/01 15:11:22;;;;;;;7.80;4.85;;;;;;;;;;8211852;28;20039;-84
2022/04/01 15:15:42;;;;;;;8.35;5.50;;;;;;;;;;8226386;28;20047;-86
2022/04/01 15:19:51;;;;;;;37.47;17.98;;;;;;;;;;8229143;28;20039;-86
2022/04/01 15:24:05;;;;;;;7.90;5.20;;;;;;;;;;8234446;28;20053;-87
2022/04/01 15:28:23;;;;;;;8.88;5.13;;;;;;;;;;8294158;28;20050;-87
2022/04/01 15:32:29;;;;;;;6.72;4.72;;;;;;;;;;8289290;28;20046;-85
2022/04/01 15:36:34;;;;;;;7.40;5.22;;;;;;;;;;8314117;28;20069;-89
2022/04/01 15:40:50;;;;;;;8.20;5.07;;;;;;;;;;8302368;28;20507;-87
2022/04/01 15:45:00;;;;;;;7.95;4.85;;;;;;;;;;8318513;28;20412;-86
2022/04/01 15:49:14;;;;;;;7.10;5.00;;;;;;;;;;8273709;28;20053;-87
2022/04/01 15:53:33;;;;;;;7.18;4.53;;;;;;;;;;8267194;28;20042;-83
2022/04/01 15:57:45;;;;;;;8.85;5.15;;;;;;;;;;8271395;28;20049;-81
2022/04/01 16:02:01;;;;;;;8.52;5.47;;;;;;;;;;8272305;28;20042;-85
2022/04/01 16:06:32;;;;;;;7.22;4.75;;;;;;;;;;8267060;28;20398;-88
2022/04/01 16:11:14;;;;;;;8.18;4.97;;;;;;;;;;8262131;28;20050;-86
2022/04/01 16:15:32;;;;;;;8.38;4.85;;;;;;;;;;8310056;28;20053;-85
2022/04/01 16:19:41;;;;;;;8.63;5.03;;;;;;;;;;8314537;28;20141;-85
2022/04/01 16:24:25;;;;;;;9.40;5.07;;;;;;;;;;8278324;28;20406;-87
2022/04/01 16:28:32;;;;;;;9.23;4.30;;;;;;;;;;8217707;28;20043;-87
2022/04/01 16:32:44;;;;;;;11.55;5.43;;;;;;;;;;8232211;28;20043;-86
2022/04/01 16:36:57;;;;;;;9.88;5.03;;;;;;;;;;8225986;28;20042;-87
2022/04/01 16:41:11;;;;;;;7.53;4.45;;;;;;;;;;8222918;28;20047;-87
2022/04/01 16:45:20;;;;;;;7.65;4.75;;;;;;;;;;8226951;28;20082;-87
2022/04/01 16:49:33;;;;;;;6.25;4.38;;;;;;;;;;8235221;28;20051;-85
2022/04/01 16:53:38;;;;;;;7.60;4.60;;;;;;;;;;8238291;28;20097;-85
2022/04/01 16:57:43;;;;;;;8.43;4.63;;;;;;;;;;8231087;28;20482;-84
2022/04/01 17:01:46;;;;;;;8.10;4.07;;;;;;;;;;8237555;28;20073;-85
2022/04/01 17:14:34;;;;;;;9.13;4.72;;;;;;;;;;8213314;28;20049;-87
2022/04/01 17:18:38;;;;;;;8.45;5.10;;;;;;;;;;8238462;28;20058;-85
2022/04/01 17:22:42;;;;;;;10.50;5.03;;;;;;;;;;8237290;28;20490;-87
2022/04/01 17:26:45;;;;;;;10.55;5.10;;;;;;;;;;8258005;28;20137;-87
2022/04/01 17:30:54;;;;;;;6.85;4.28;;;;;;;;;;8282296;28;20057;-87
2022/04/01 17:35:04;;;;;;;9.02;4.72;;;;;;;;;;8296825;28;20050;-87
2022/04/01 17:39:10;;;;;;;10.73;5.13;;;;;;;;;;8293091;28;20056;-86
2022/04/01 17:43:17;;;;;;;16.70;7.10;;;;;;;;;;8289556;28;20053;-86
2022/04/01 17:47:25;;;;;;;10.27;5.15;;;;;;;;;;8296206;28;20041;-89
2022/04/01 17:51:28;;;;;;;10.43;4.95;;;;;;;;;;8271667;28;20046;-87
2022/04/01 17:55:34;;;;;;;10.30;5.25;;;;;;;;;;8289829;28;20041;-88
2022/04/01 17:59:40;;;;;;;15.30;7.53;;;;;;;;;;8280241;28;20482;-87
2022/04/01 18:03:49;;;;;;;8.15;5.05;;;;;;;;;;8285385;28;20042;-87
2022/04/01 18:07:59;;;;;;;12.30;7.45;;;;;;;;;;8277411;28;20046;-87
2022/04/01 18:12:06;;;;;;;9.07;5.18;;;;;;;;;;8269585;28;20042;-87
2022/04/01 18:16:10;;;;;;;7.32;4.30;;;;;;;;;;8276151;28;20053;-86
2022/04/01 18:20:48;;;;;;;12.27;6.32;;;;;;;;;;8282901;28;20092;-88
2022/04/01 18:30:03;;;;;;;9.00;5.57;;;;;;;;;;8259186;28;20501;-87
2022/04/01 18:34:41;;;;;;;11.23;6.15;;;;;;;;;;8282721;28;20070;-86
2022/04/01 18:39:10;;;;;;;13.52;6.00;;;;;;;;;;8284648;28;20045;-86
2022/04/01 18:59:20;;;;;;;9.25;5.13;;;;;;;;;;8279287;28;20521;-87
2022/04/01 19:03:55;;;;;;;8.57;4.80;;;;;;;;;;8285432;28;20053;-87
2022/04/01 19:13:33;;;;;;;9.23;5.22;;;;;;;;;;8280689;28;20038;-87
2022/04/01 19:17:44;;;;;;;9.80;5.75;;;;;;;;;;8283838;28;20041;-88
2022/04/01 19:21:58;;;;;;;7.93;4.60;;;;;;;;;;8289034;28;20124;-89
2022/04/01 19:26:03;;;;;;;14.15;5.90;;;;;;;;;;8289776;28;20085;-88
2022/04/01 19:30:14;;;;;;;35.35;11.50;;;;;;;;;;8273639;28;20058;-87
2022/04/01 19:34:24;;;;;;;15.95;7.78;;;;;;;;;;8274024;28;20042;-88
2022/04/01 19:38:45;;;;;;;12.32;6.50;;;;;;;;;;8283368;28;20050;-88
2022/04/01 19:42:53;;;;;;;11.40;6.45;;;;;;;;;;8266986;28;20141;-87
2022/04/01 19:46:59;;;;;;;16.17;7.55;;;;;;;;;;8281058;28;20053;-87
2022/04/01 19:51:29;;;;;;;13.98;7.97;;;;;;;;;;8281040;28;20068;-83
2022/04/01 19:55:37;;;;;;;15.05;7.35;;;;;;;;;;8279973;28;20397;-84
2022/04/01 19:59:41;;;;;;;12.43;6.88;;;;;;;;;;8280977;28;20050;-86
2022/04/01 20:03:46;;;;;;;14.27;6.40;;;;;;;;;;8282018;28;20046;-87
2022/04/01 20:07:50;;;;;;;12.30;6.45;;;;;;;;;;8279039;28;20069;-87
2022/04/01 20:11:59;;;;;;;12.27;6.50;;;;;;;;;;8279805;28;20056;-85
2022/04/01 20:16:04;;;;;;;13.93;7.45;;;;;;;;;;8282612;28;20042;-87
2022/04/01 20:20:16;;;;;;;12.73;6.47;;;;;;;;;;8280847;28;20042;-88
2022/04/01 20:24:21;;;;;;;17.08;8.43;;;;;;;;;;8265801;28;20051;-87
2022/04/01 20:28:29;;;;;;;11.93;6.70;;;;;;;;;;8278928;28;20047;-87
2022/04/01 20:32:39;;;;;;;19.83;7.82;;;;;;;;;;8260920;28;20407;-88
2022/04/01 20:36:46;;;;;;;15.18;7.10;;;;;;;;;;8280015;28;20077;-88
2022/04/01 20:40:50;;;;;;;16.42;7.90;;;;;;;;;;8281705;28;20085;-84
2022/04/01 20:44:54;;;;;;;15.35;7.95;;;;;;;;;;8278733;28;20045;-87
2022/04/01 20:48:59;;;;;;;54.17;19.88;;;;;;;;;;8278469;28;20069;-87
2022/04/01 20:53:04;;;;;;;14.63;8.05;;;;;;;;;;8278385;28;20046;-88
2022/04/01 20:57:08;;;;;;;17.88;8.20;;;;;;;;;;8277166;28;20042;-88
2022/04/01 21:01:17;;;;;;;15.75;7.63;;;;;;;;;;8280031;28;20046;-85
2022/04/01 21:05:21;;;;;;;12.02;7.03;;;;;;;;;;8281610;28;20478;-87
2022/04/01 21:09:28;;;;;;;12.60;6.57;;;;;;;;;;8278072;28;20042;-87
2022/04/01 21:13:31;;;;;;;11.18;6.63;;;;;;;;;;8289930;28;20045;-85
2022/04/01 21:17:34;;;;;;;14.52;7.78;;;;;;;;;;8290118;28;20129;-86
2022/04/01 21:21:37;;;;;;;14.40;8.02;;;;;;;;;;8296631;28;20080;-86
2022/04/01 21:30:08;;;;;;;11.77;6.83;;;;;;;;;;8295290;28;20064;-87
2022/04/01 21:34:14;;;;;;;11.30;6.80;;;;;;;;;;8280222;28;20042;-86
2022/04/01 21:38:17;;;;;;;11.23;6.60;;;;;;;;;;8291718;28;20049;-85
2022/04/01 21:42:21;;;;;;;17.38;7.03;;;;;;;;;;8302782;28;20053;-87
2022/04/01 21:46:24;;;;;;;13.80;7.40;;;;;;;;;;8302556;28;20121;-89
2022/04/01 21:50:27;;;;;;;14.63;7.47;;;;;;;;;;8302651;28;20046;-88
2022/04/01 21:54:29;;;;;;;12.32;7.43;;;;;;;;;;8302129;28;20112;-88
2022/04/01 21:58:34;;;;;;;10.98;6.15;;;;;;;;;;8302321;28;20053;-87
2022/04/01 22:02:37;;;;;;;13.90;7.85;;;;;;;;;;8301859;28;20132;-88
2022/04/01 22:06:41;;;;;;;12.25;7.03;;;;;;;;;;8301341;28;20048;-87
2022/04/01 22:10:44;;;;;;;12.52;7.00;;;;;;;;;;8292628;28;20383;-89
2022/04/01 22:14:50;;;;;;;11.10;6.75;;;;;;;;;;8285420;28;20060;-88
2022/04/01 22:18:53;;;;;;;13.93;6.97;;;;;;;;;;8300171;28;20072;-88
2022/04/01 22:22:55;;;;;;;12.68;6.45;;;;;;;;;;8300816;28;20153;-87
2022/04/01 22:26:58;;;;;;;10.30;5.63;;;;;;;;;;8300512;28;20058;-86
2022/04/01 22:31:02;;;;;;;9.52;5.93;;;;;;;;;;8300565;28;20490;-89
2022/04/01 22:35:07;;;;;;;12.52;6.55;;;;;;;;;;8300705;28;20046;-87
2022/04/01 22:39:10;;;;;;;12.75;6.82;;;;;;;;;;8300444;28;20144;-88
2022/04/01 22:43:13;;;;;;;11.55;6.82;;;;;;;;;;8300052;28;20042;-90
2022/04/01 22:47:17;;;;;;;13.23;7.38;;;;;;;;;;8299445;28;20050;-91
2022/04/01 22:52:20;;;;;;;13.50;7.38;;;;;;;;;;8299502;28;20046;-90
2022/04/01 22:55:42;;;;;;;12.65;7.53;;;;;;;;;;8299654;28;20062;-90
2022/04/01 22:59:45;;;;;;;12.10;7.53;;;;;;;;;;8306744;28;20041;-88
2022/04/01 23:03:49;;;;;;;13.82;6.53;;;;;;;;;;8299149;28;20046;-87
2022/04/01 23:07:51;;;;;;;13.45;6.55;;;;;;;;;;8299322;28;20054;-89
2022/04/01 23:11:54;;;;;;;13.90;7.20;;;;;;;;;;8299097;28;20103;-87
2022/04/01 23:15:56;;;;;;;11.38;7.10;;;;;;;;;;8286621;28;20046;-86
2022/04/01 23:20:01;;;;;;;11.18;5.93;;;;;;;;;;8291603;28;20042;-85
2022/04/01 23:24:05;;;;;;;11.88;6.45;;;;;;;;;;8290388;28;20042;-87
2022/04/01 23:28:08;;;;;;;12.93;7.05;;;;;;;;;;8292163;28;20049;-85
2022/04/01 23:32:11;;;;;;;11.70;7.00;;;;;;;;;;8292074;28;20121;-85
2022/04/01 23:36:15;;;;;;;13.10;7.15;;;;;;;;;;8294403;28;20041;-86
2022/04/01 23:40:17;;;;;;;11.48;6.20;;;;;;;;;;8287321;28;20054;-88
2022/04/01 23:44:20;;;;;;;11.13;6.35;;;;;;;;;;8297355;28;20041;-88
2022/04/01 23:48:23;;;;;;;11.57;6.65;;;;;;;;;;8289325;28;20093;-87
2022/04/01 23:52:27;;;;;;;10.93;6.80;;;;;;;;;;8279782;28;20042;-88
2022/04/01 23:56:29;;;;;;;9.85;6.30;;;;;;;;;;8298118;28;20050;-88
